sensor_id;sensor_type;location;lat;lon;timestamp;P1;durP1;ratioP1;P2;durP2;ratioP2
75526;SDS011;64107;49.248;7.006;2023-08-21T00:01:21;5.70;;;3.10;;
75526;SDS011;64107;49.248;7.006;2023-08-21T00:03:47;5.40;;;3.15;;
75526;SDS011;64107;49.248;7.006;2023-08-21T00:06:13;4.10;;;3.08;;
75526;SDS011;64107;49.248;7.006;2023-08-21T00:08:39;7.88;;;3.63;;
75526;SDS011;64107;49.248;7.006;2023-08-21T00:11:05;6.60;;;3.70;;
75526;SDS011;64107;49.248;7.006;2023-08-21T00:13:31;4.57;;;2.65;;
75526;SDS011;64107;49.248;7.006;2023-08-21T00:15:57;5.40;;;3.50;;
75526;SDS011;64107;49.248;7.006;2023-08-21T00:18:23;4.60;;;3.08;;
75526;SDS011;64107;49.248;7.006;2023-08-21T00:20:49;3.75;;;2.70;;
75526;SDS011;64107;49.248;7.006;2023-08-21T00:23:16;6.22;;;3.40;;
75526;SDS011;64107;49.248;7.006;2023-08-21T00:25:45;5.45;;;3.20;;
75526;SDS011;64107;49.248;7.006;2023-08-21T00:28:11;7.60;;;3.42;;
75526;SDS011;64107;49.248;7.006;2023-08-21T00:30:38;8.10;;;3.45;;
75526;SDS011;64107;49.248;7.006;2023-08-21T00:33:04;4.40;;;3.08;;
75526;SDS011;64107;49.248;7.006;2023-08-21T00:35:30;7.85;;;3.55;;
75526;SDS011;64107;49.248;7.006;2023-08-21T00:37:56;5.30;;;2.92;;
75526;SDS011;64107;49.248;7.006;2023-08-21T00:40:22;6.72;;;3.20;;
75526;SDS011;64107;49.248;7.006;2023-08-21T00:42:48;5.82;;;3.33;;
75526;SDS011;64107;49.248;7.006;2023-08-21T00:45:15;4.82;;;3.03;;
75526;SDS011;64107;49.248;7.006;2023-08-21T00:47:41;4.18;;;2.60;;
75526;SDS011;64107;49.248;7.006;2023-08-21T00:50:08;7.68;;;3.50;;
75526;SDS011;64107;49.248;7.006;2023-08-21T00:52:36;4.63;;;2.97;;
75526;SDS011;64107;49.248;7.006;2023-08-21T00:55:03;3.70;;;3.22;;
75526;SDS011;64107;49.248;7.006;2023-08-21T00:57:29;6.70;;;3.72;;
75526;SDS011;64107;49.248;7.006;2023-08-21T00:59:56;5.63;;;3.53;;
75526;SDS011;64107;49.248;7.006;2023-08-21T01:02:22;6.55;;;3.13;;
75526;SDS011;64107;49.248;7.006;2023-08-21T01:04:48;4.93;;;3.03;;
75526;SDS011;64107;49.248;7.006;2023-08-21T01:07:14;6.65;;;3.03;;
75526;SDS011;64107;49.248;7.006;2023-08-21T01:12:26;7.22;;;3.25;;
75526;SDS011;64107;49.248;7.006;2023-08-21T01:15:04;5.50;;;3.20;;
75526;SDS011;64107;49.248;7.006;2023-08-21T01:17:33;4.18;;;3.42;;
75526;SDS011;64107;49.248;7.006;2023-08-21T01:20:00;6.78;;;3.72;;
75526;SDS011;64107;49.248;7.006;2023-08-21T01:22:27;10.02;;;4.03;;
75526;SDS011;64107;49.248;7.006;2023-08-21T01:25:01;5.07;;;3.53;;
75526;SDS011;64107;49.248;7.006;2023-08-21T01:27:28;5.13;;;2.95;;
75526;SDS011;64107;49.248;7.006;2023-08-21T01:29:54;5.82;;;3.70;;
75526;SDS011;64107;49.248;7.006;2023-08-21T01:32:27;4.43;;;3.05;;
75526;SDS011;64107;49.248;7.006;2023-08-21T01:35:07;6.72;;;3.42;;
75526;SDS011;64107;49.248;7.006;2023-08-21T01:37:35;6.43;;;3.42;;
75526;SDS011;64107;49.248;7.006;2023-08-21T01:40:01;5.60;;;3.65;;
75526;SDS011;64107;49.248;7.006;2023-08-21T01:42:27;6.30;;;3.88;;
75526;SDS011;64107;49.248;7.006;2023-08-21T01:44:53;7.43;;;4.25;;
75526;SDS011;64107;49.248;7.006;2023-08-21T01:47:20;8.25;;;3.50;;
75526;SDS011;64107;49.248;7.006;2023-08-21T01:49:46;6.03;;;3.60;;
75526;SDS011;64107;49.248;7.006;2023-08-21T01:52:12;4.80;;;3.40;;
75526;SDS011;64107;49.248;7.006;2023-08-21T01:54:38;11.35;;;4.47;;
75526;SDS011;64107;49.248;7.006;2023-08-21T01:57:04;4.20;;;3.25;;
75526;SDS011;64107;49.248;7.006;2023-08-21T01:59:31;6.53;;;3.55;;
75526;SDS011;64107;49.248;7.006;2023-08-21T02:01:57;6.05;;;3.38;;
75526;SDS011;64107;49.248;7.006;2023-08-21T02:04:23;7.20;;;3.47;;
75526;SDS011;64107;49.248;7.006;2023-08-21T02:06:49;5.65;;;3.63;;
75526;SDS011;64107;49.248;7.006;2023-08-21T02:09:15;5.88;;;3.20;;
75526;SDS011;64107;49.248;7.006;2023-08-21T02:11:41;7.45;;;3.45;;
75526;SDS011;64107;49.248;7.006;2023-08-21T02:14:07;7.85;;;3.63;;
75526;SDS011;64107;49.248;7.006;2023-08-21T02:16:33;5.22;;;3.88;;
75526;SDS011;64107;49.248;7.006;2023-08-21T02:18:59;4.90;;;3.13;;
75526;SDS011;64107;49.248;7.006;2023-08-21T02:21:25;5.60;;;3.92;;
75526;SDS011;64107;49.248;7.006;2023-08-21T02:23:51;7.15;;;4.45;;
75526;SDS011;64107;49.248;7.006;2023-08-21T02:26:17;7.00;;;4.18;;
75526;SDS011;64107;49.248;7.006;2023-08-21T02:28:45;6.20;;;3.65;;
75526;SDS011;64107;49.248;7.006;2023-08-21T02:31:11;5.40;;;3.40;;
75526;SDS011;64107;49.248;7.006;2023-08-21T02:33:38;7.97;;;4.50;;
75526;SDS011;64107;49.248;7.006;2023-08-21T02:36:04;8.52;;;3.88;;
75526;SDS011;64107;49.248;7.006;2023-08-21T02:38:32;4.47;;;3.40;;
75526;SDS011;64107;49.248;7.006;2023-08-21T02:40:58;14.23;;;4.50;;
75526;SDS011;64107;49.248;7.006;2023-08-21T02:43:24;5.10;;;3.03;;
75526;SDS011;64107;49.248;7.006;2023-08-21T02:45:50;8.30;;;4.82;;
75526;SDS011;64107;49.248;7.006;2023-08-21T02:48:16;6.28;;;4.32;;
75526;SDS011;64107;49.248;7.006;2023-08-21T02:50:42;9.98;;;5.28;;
75526;SDS011;64107;49.248;7.006;2023-08-21T02:53:08;7.25;;;3.50;;
75526;SDS011;64107;49.248;7.006;2023-08-21T02:55:34;11.70;;;4.13;;
75526;SDS011;64107;49.248;7.006;2023-08-21T02:58:00;6.30;;;3.75;;
75526;SDS011;64107;49.248;7.006;2023-08-21T03:00:27;7.93;;;3.80;;
75526;SDS011;64107;49.248;7.006;2023-08-21T03:02:53;6.88;;;3.85;;
75526;SDS011;64107;49.248;7.006;2023-08-21T03:05:20;7.85;;;4.03;;
75526;SDS011;64107;49.248;7.006;2023-08-21T03:07:46;9.02;;;5.03;;
75526;SDS011;64107;49.248;7.006;2023-08-21T03:10:12;11.07;;;4.95;;
75526;SDS011;64107;49.248;7.006;2023-08-21T03:12:38;6.32;;;3.42;;
75526;SDS011;64107;49.248;7.006;2023-08-21T03:15:04;7.03;;;3.97;;
75526;SDS011;64107;49.248;7.006;2023-08-21T03:17:31;6.03;;;3.80;;
75526;SDS011;64107;49.248;7.006;2023-08-21T03:19:57;7.07;;;4.03;;
75526;SDS011;64107;49.248;7.006;2023-08-21T03:22:23;10.55;;;4.50;;
75526;SDS011;64107;49.248;7.006;2023-08-21T03:24:49;8.18;;;4.40;;
75526;SDS011;64107;49.248;7.006;2023-08-21T03:27:15;8.00;;;3.92;;
75526;SDS011;64107;49.248;7.006;2023-08-21T03:29:44;7.78;;;4.03;;
75526;SDS011;64107;49.248;7.006;2023-08-21T03:32:14;12.02;;;6.50;;
75526;SDS011;64107;49.248;7.006;2023-08-21T03:34:43;6.13;;;3.53;;
75526;SDS011;64107;49.248;7.006;2023-08-21T03:37:09;10.35;;;5.38;;
75526;SDS011;64107;49.248;7.006;2023-08-21T03:39:35;11.07;;;5.10;;
75526;SDS011;64107;49.248;7.006;2023-08-21T03:42:02;7.47;;;4.35;;
75526;SDS011;64107;49.248;7.006;2023-08-21T03:44:28;7.38;;;4.55;;
75526;SDS011;64107;49.248;7.006;2023-08-21T03:46:54;7.72;;;4.18;;
75526;SDS011;64107;49.248;7.006;2023-08-21T03:49:20;7.53;;;4.65;;
75526;SDS011;64107;49.248;7.006;2023-08-21T03:51:46;9.32;;;4.80;;
75526;SDS011;64107;49.248;7.006;2023-08-21T03:54:12;10.43;;;4.80;;
75526;SDS011;64107;49.248;7.006;2023-08-21T03:56:38;8.25;;;4.35;;
75526;SDS011;64107;49.248;7.006;2023-08-21T03:59:04;9.07;;;5.13;;
75526;SDS011;64107;49.248;7.006;2023-08-21T04:01:30;8.75;;;4.38;;
75526;SDS011;64107;49.248;7.006;2023-08-21T04:03:56;8.48;;;4.20;;
75526;SDS011;64107;49.248;7.006;2023-08-21T04:06:22;7.70;;;3.92;;
75526;SDS011;64107;49.248;7.006;2023-08-21T04:08:48;9.23;;;4.82;;
75526;SDS011;64107;49.248;7.006;2023-08-21T04:11:14;7.38;;;3.72;;
75526;SDS011;64107;49.248;7.006;2023-08-21T04:13:41;8.82;;;4.18;;
75526;SDS011;64107;49.248;7.006;2023-08-21T04:16:07;8.60;;;4.00;;
75526;SDS011;64107;49.248;7.006;2023-08-21T04:18:33;5.68;;;4.00;;
75526;SDS011;64107;49.248;7.006;2023-08-21T04:21:01;13.65;;;5.50;;
75526;SDS011;64107;49.248;7.006;2023-08-21T04:23:27;8.23;;;4.30;;
75526;SDS011;64107;49.248;7.006;2023-08-21T04:25:59;5.65;;;3.88;;
75526;SDS011;64107;49.248;7.006;2023-08-21T04:28:26;9.23;;;4.57;;
75526;SDS011;64107;49.248;7.006;2023-08-21T04:30:52;8.25;;;4.68;;
75526;SDS011;64107;49.248;7.006;2023-08-21T04:33:18;6.25;;;4.25;;
75526;SDS011;64107;49.248;7.006;2023-08-21T04:35:44;6.88;;;4.20;;
75526;SDS011;64107;49.248;7.006;2023-08-21T04:38:10;11.75;;;4.90;;
75526;SDS011;64107;49.248;7.006;2023-08-21T04:40:36;11.00;;;5.22;;
75526;SDS011;64107;49.248;7.006;2023-08-21T04:43:02;6.38;;;3.63;;
75526;SDS011;64107;49.248;7.006;2023-08-21T04:45:28;10.23;;;4.13;;
75526;SDS011;64107;49.248;7.006;2023-08-21T04:47:55;6.32;;;4.18;;
75526;SDS011;64107;49.248;7.006;2023-08-21T04:50:21;8.00;;;4.47;;
75526;SDS011;64107;49.248;7.006;2023-08-21T04:52:47;8.75;;;4.10;;
75526;SDS011;64107;49.248;7.006;2023-08-21T04:55:14;5.75;;;3.92;;
75526;SDS011;64107;49.248;7.006;2023-08-21T04:57:40;6.30;;;3.83;;
75526;SDS011;64107;49.248;7.006;2023-08-21T05:00:07;6.65;;;4.22;;
75526;SDS011;64107;49.248;7.006;2023-08-21T05:02:34;10.18;;;4.57;;
75526;SDS011;64107;49.248;7.006;2023-08-21T05:05:00;5.95;;;3.88;;
75526;SDS011;64107;49.248;7.006;2023-08-21T05:07:26;9.20;;;4.60;;
75526;SDS011;64107;49.248;7.006;2023-08-21T05:09:52;8.35;;;5.30;;
75526;SDS011;64107;49.248;7.006;2023-08-21T05:12:19;7.32;;;3.75;;
75526;SDS011;64107;49.248;7.006;2023-08-21T05:14:45;8.30;;;4.63;;
75526;SDS011;64107;49.248;7.006;2023-08-21T05:17:11;7.07;;;4.35;;
75526;SDS011;64107;49.248;7.006;2023-08-21T05:19:37;6.57;;;4.70;;
75526;SDS011;64107;49.248;7.006;2023-08-21T05:22:03;7.00;;;4.45;;
75526;SDS011;64107;49.248;7.006;2023-08-21T05:24:30;7.13;;;4.13;;
75526;SDS011;64107;49.248;7.006;2023-08-21T05:26:56;7.80;;;4.50;;
75526;SDS011;64107;49.248;7.006;2023-08-21T05:29:22;8.50;;;4.43;;
75526;SDS011;64107;49.248;7.006;2023-08-21T05:31:48;9.10;;;4.60;;
75526;SDS011;64107;49.248;7.006;2023-08-21T05:34:14;6.70;;;4.28;;
75526;SDS011;64107;49.248;7.006;2023-08-21T05:36:41;8.98;;;5.60;;
75526;SDS011;64107;49.248;7.006;2023-08-21T05:39:07;8.13;;;4.25;;
75526;SDS011;64107;49.248;7.006;2023-08-21T05:41:33;7.13;;;4.22;;
75526;SDS011;64107;49.248;7.006;2023-08-21T05:43:59;7.47;;;4.43;;
75526;SDS011;64107;49.248;7.006;2023-08-21T05:46:25;7.53;;;4.13;;
75526;SDS011;64107;49.248;7.006;2023-08-21T05:48:51;6.65;;;4.20;;
75526;SDS011;64107;49.248;7.006;2023-08-21T05:51:18;7.85;;;5.18;;
75526;SDS011;64107;49.248;7.006;2023-08-21T05:53:44;7.13;;;4.30;;
75526;SDS011;64107;49.248;7.006;2023-08-21T05:56:10;5.70;;;3.85;;
75526;SDS011;64107;49.248;7.006;2023-08-21T05:58:36;8.93;;;4.47;;
75526;SDS011;64107;49.248;7.006;2023-08-21T06:01:02;8.02;;;4.20;;
75526;SDS011;64107;49.248;7.006;2023-08-21T06:03:28;8.60;;;3.97;;
75526;SDS011;64107;49.248;7.006;2023-08-21T06:05:54;6.78;;;4.32;;
75526;SDS011;64107;49.248;7.006;2023-08-21T06:08:20;7.50;;;4.45;;
75526;SDS011;64107;49.248;7.006;2023-08-21T06:10:50;6.68;;;3.75;;
75526;SDS011;64107;49.248;7.006;2023-08-21T06:13:16;7.85;;;4.80;;
75526;SDS011;64107;49.248;7.006;2023-08-21T06:15:43;6.47;;;4.53;;
75526;SDS011;64107;49.248;7.006;2023-08-21T06:18:10;6.35;;;3.92;;
75526;SDS011;64107;49.248;7.006;2023-08-21T06:20:36;10.27;;;4.80;;
75526;SDS011;64107;49.248;7.006;2023-08-21T06:23:02;7.60;;;4.18;;
75526;SDS011;64107;49.248;7.006;2023-08-21T06:25:28;5.97;;;3.85;;
75526;SDS011;64107;49.248;7.006;2023-08-21T06:27:56;8.30;;;3.97;;
75526;SDS011;64107;49.248;7.006;2023-08-21T06:30:22;8.32;;;4.38;;
75526;SDS011;64107;49.248;7.006;2023-08-21T06:32:48;8.68;;;4.53;;
75526;SDS011;64107;49.248;7.006;2023-08-21T06:35:14;6.70;;;4.30;;
75526;SDS011;64107;49.248;7.006;2023-08-21T06:37:41;7.85;;;4.72;;
75526;SDS011;64107;49.248;7.006;2023-08-21T06:40:07;6.93;;;4.53;;
75526;SDS011;64107;49.248;7.006;2023-08-21T06:42:33;8.32;;;3.75;;
75526;SDS011;64107;49.248;7.006;2023-08-21T06:44:59;8.93;;;4.30;;
75526;SDS011;64107;49.248;7.006;2023-08-21T06:47:25;6.68;;;3.95;;
75526;SDS011;64107;49.248;7.006;2023-08-21T06:49:51;7.85;;;4.35;;
75526;SDS011;64107;49.248;7.006;2023-08-21T06:52:18;7.80;;;4.30;;
75526;SDS011;64107;49.248;7.006;2023-08-21T06:54:44;8.40;;;4.53;;
75526;SDS011;64107;49.248;7.006;2023-08-21T06:57:10;6.82;;;4.18;;
75526;SDS011;64107;49.248;7.006;2023-08-21T06:59:36;8.55;;;4.22;;
75526;SDS011;64107;49.248;7.006;2023-08-21T07:02:03;5.75;;;4.15;;
75526;SDS011;64107;49.248;7.006;2023-08-21T07:04:29;6.38;;;4.10;;
75526;SDS011;64107;49.248;7.006;2023-08-21T07:06:55;10.18;;;3.80;;
75526;SDS011;64107;49.248;7.006;2023-08-21T07:09:21;9.98;;;5.60;;
75526;SDS011;64107;49.248;7.006;2023-08-21T07:11:47;6.50;;;4.13;;
75526;SDS011;64107;49.248;7.006;2023-08-21T07:14:13;7.40;;;3.97;;
75526;SDS011;64107;49.248;7.006;2023-08-21T07:16:39;6.13;;;4.07;;
75526;SDS011;64107;49.248;7.006;2023-08-21T07:19:05;7.32;;;4.03;;
75526;SDS011;64107;49.248;7.006;2023-08-21T07:21:31;5.57;;;4.03;;
75526;SDS011;64107;49.248;7.006;2023-08-21T07:24:00;6.53;;;4.00;;
75526;SDS011;64107;49.248;7.006;2023-08-21T07:26:29;5.65;;;4.10;;
75526;SDS011;64107;49.248;7.006;2023-08-21T07:28:55;7.60;;;4.72;;
75526;SDS011;64107;49.248;7.006;2023-08-21T07:31:22;6.13;;;4.00;;
75526;SDS011;64107;49.248;7.006;2023-08-21T07:33:48;5.53;;;3.50;;
75526;SDS011;64107;49.248;7.006;2023-08-21T07:36:14;7.13;;;4.03;;
75526;SDS011;64107;49.248;7.006;2023-08-21T07:38:43;7.13;;;4.45;;
75526;SDS011;64107;49.248;7.006;2023-08-21T07:41:10;7.85;;;4.35;;
75526;SDS011;64107;49.248;7.006;2023-08-21T07:43:38;6.90;;;4.60;;
75526;SDS011;64107;49.248;7.006;2023-08-21T07:46:05;7.65;;;4.45;;
75526;SDS011;64107;49.248;7.006;2023-08-21T07:48:32;8.05;;;4.25;;
75526;SDS011;64107;49.248;7.006;2023-08-21T07:50:58;7.20;;;4.25;;
75526;SDS011;64107;49.248;7.006;2023-08-21T07:53:25;5.50;;;4.15;;
75526;SDS011;64107;49.248;7.006;2023-08-21T07:55:51;9.10;;;5.07;;
75526;SDS011;64107;49.248;7.006;2023-08-21T07:58:17;6.65;;;3.58;;
75526;SDS011;64107;49.248;7.006;2023-08-21T08:00:44;6.70;;;4.43;;
75526;SDS011;64107;49.248;7.006;2023-08-21T08:03:10;6.13;;;3.97;;
75526;SDS011;64107;49.248;7.006;2023-08-21T08:05:39;5.72;;;4.38;;
75526;SDS011;64107;49.248;7.006;2023-08-21T08:08:05;4.95;;;3.85;;
75526;SDS011;64107;49.248;7.006;2023-08-21T08:10:31;10.73;;;6.10;;
75526;SDS011;64107;49.248;7.006;2023-08-21T08:12:57;6.30;;;4.18;;
75526;SDS011;64107;49.248;7.006;2023-08-21T08:15:23;6.10;;;4.10;;
75526;SDS011;64107;49.248;7.006;2023-08-21T08:17:49;5.60;;;3.83;;
75526;SDS011;64107;49.248;7.006;2023-08-21T08:20:18;5.80;;;4.30;;
75526;SDS011;64107;49.248;7.006;2023-08-21T08:22:46;5.15;;;4.00;;
75526;SDS011;64107;49.248;7.006;2023-08-21T08:25:13;4.82;;;3.92;;
75526;SDS011;64107;49.248;7.006;2023-08-21T08:27:39;7.15;;;4.32;;
75526;SDS011;64107;49.248;7.006;2023-08-21T08:30:05;6.07;;;4.78;;
75526;SDS011;64107;49.248;7.006;2023-08-21T08:32:32;10.07;;;5.45;;
75526;SDS011;64107;49.248;7.006;2023-08-21T08:34:58;14.98;;;4.95;;
75526;SDS011;64107;49.248;7.006;2023-08-21T08:37:24;8.18;;;4.25;;
75526;SDS011;64107;49.248;7.006;2023-08-21T08:39:50;6.28;;;4.15;;
75526;SDS011;64107;49.248;7.006;2023-08-21T08:42:16;5.55;;;3.75;;
75526;SDS011;64107;49.248;7.006;2023-08-21T08:44:42;4.25;;;3.60;;
75526;SDS011;64107;49.248;7.006;2023-08-21T08:47:13;7.70;;;4.25;;
75526;SDS011;64107;49.248;7.006;2023-08-21T08:49:40;7.22;;;4.30;;
75526;SDS011;64107;49.248;7.006;2023-08-21T08:52:06;4.78;;;3.35;;
75526;SDS011;64107;49.248;7.006;2023-08-21T08:54:32;9.32;;;3.55;;
75526;SDS011;64107;49.248;7.006;2023-08-21T08:57:00;4.93;;;2.95;;
75526;SDS011;64107;49.248;7.006;2023-08-21T08:59:29;8.32;;;3.80;;
75526;SDS011;64107;49.248;7.006;2023-08-21T09:01:56;5.65;;;3.05;;
75526;SDS011;64107;49.248;7.006;2023-08-21T09:04:22;6.82;;;2.92;;
75526;SDS011;64107;49.248;7.006;2023-08-21T09:06:48;4.95;;;3.25;;
75526;SDS011;64107;49.248;7.006;2023-08-21T09:09:14;5.32;;;3.55;;
75526;SDS011;64107;49.248;7.006;2023-08-21T09:11:44;5.32;;;3.00;;
75526;SDS011;64107;49.248;7.006;2023-08-21T09:14:11;7.28;;;3.22;;
75526;SDS011;64107;49.248;7.006;2023-08-21T09:16:37;4.30;;;2.97;;
75526;SDS011;64107;49.248;7.006;2023-08-21T09:19:22;6.85;;;3.10;;
75526;SDS011;64107;49.248;7.006;2023-08-21T09:21:49;4.40;;;2.90;;
75526;SDS011;64107;49.248;7.006;2023-08-21T09:24:15;5.00;;;3.05;;
75526;SDS011;64107;49.248;7.006;2023-08-21T09:26:41;5.57;;;2.97;;
75526;SDS011;64107;49.248;7.006;2023-08-21T09:29:08;3.78;;;2.85;;
75526;SDS011;64107;49.248;7.006;2023-08-21T09:31:36;7.03;;;2.72;;
75526;SDS011;64107;49.248;7.006;2023-08-21T09:34:03;6.10;;;2.95;;
75526;SDS011;64107;49.248;7.006;2023-08-21T09:36:32;5.63;;;2.50;;
75526;SDS011;64107;49.248;7.006;2023-08-21T09:38:59;3.60;;;2.90;;
75526;SDS011;64107;49.248;7.006;2023-08-21T09:41:25;4.25;;;2.95;;
75526;SDS011;64107;49.248;7.006;2023-08-21T09:43:51;4.50;;;2.13;;
75526;SDS011;64107;49.248;7.006;2023-08-21T09:46:23;3.47;;;2.05;;
75526;SDS011;64107;49.248;7.006;2023-08-21T09:48:49;3.22;;;2.35;;
75526;SDS011;64107;49.248;7.006;2023-08-21T09:51:17;3.55;;;2.42;;
75526;SDS011;64107;49.248;7.006;2023-08-21T09:53:43;4.25;;;2.70;;
75526;SDS011;64107;49.248;7.006;2023-08-21T09:56:11;3.95;;;1.50;;
75526;SDS011;64107;49.248;7.006;2023-08-21T09:58:37;3.63;;;1.58;;
75526;SDS011;64107;49.248;7.006;2023-08-21T10:01:07;4.90;;;3.47;;
75526;SDS011;64107;49.248;7.006;2023-08-21T10:03:40;3.72;;;2.38;;
75526;SDS011;64107;49.248;7.006;2023-08-21T10:06:10;2.72;;;1.77;;
75526;SDS011;64107;49.248;7.006;2023-08-21T10:08:37;2.83;;;1.75;;
75526;SDS011;64107;49.248;7.006;2023-08-21T10:11:06;2.45;;;1.40;;
75526;SDS011;64107;49.248;7.006;2023-08-21T10:13:33;4.43;;;2.20;;
75526;SDS011;64107;49.248;7.006;2023-08-21T10:16:02;2.63;;;1.88;;
75526;SDS011;64107;49.248;7.006;2023-08-21T10:18:35;3.42;;;2.05;;
75526;SDS011;64107;49.248;7.006;2023-08-21T10:21:12;2.58;;;2.00;;
75526;SDS011;64107;49.248;7.006;2023-08-21T10:23:48;5.40;;;2.10;;
75526;SDS011;64107;49.248;7.006;2023-08-21T10:26:16;3.88;;;2.50;;
75526;SDS011;64107;49.248;7.006;2023-08-21T10:34:08;3.72;;;2.13;;
75526;SDS011;64107;49.248;7.006;2023-08-21T10:39:26;1.75;;;1.40;;
75526;SDS011;64107;49.248;7.006;2023-08-21T10:49:59;4.15;;;2.67;;
75526;SDS011;64107;49.248;7.006;2023-08-21T10:52:27;3.17;;;1.60;;
75526;SDS011;64107;49.248;7.006;2023-08-21T10:54:55;2.35;;;1.70;;
75526;SDS011;64107;49.248;7.006;2023-08-21T10:57:23;1.15;;;0.93;;
75526;SDS011;64107;49.248;7.006;2023-08-21T11:00:05;1.52;;;1.25;;
75526;SDS011;64107;49.248;7.006;2023-08-21T11:02:37;2.03;;;1.30;;
75526;SDS011;64107;49.248;7.006;2023-08-21T11:05:04;2.25;;;1.45;;
75526;SDS011;64107;49.248;7.006;2023-08-21T11:07:31;2.88;;;1.27;;
75526;SDS011;64107;49.248;7.006;2023-08-21T11:10:03;2.30;;;1.33;;
75526;SDS011;64107;49.248;7.006;2023-08-21T11:12:31;1.60;;;1.30;;
75526;SDS011;64107;49.248;7.006;2023-08-21T11:14:57;4.70;;;1.20;;
75526;SDS011;64107;49.248;7.006;2023-08-21T11:17:23;2.28;;;1.27;;
75526;SDS011;64107;49.248;7.006;2023-08-21T11:19:49;2.55;;;1.17;;
75526;SDS011;64107;49.248;7.006;2023-08-21T11:22:16;2.63;;;1.02;;
75526;SDS011;64107;49.248;7.006;2023-08-21T11:24:46;0.98;;;0.88;;
75526;SDS011;64107;49.248;7.006;2023-08-21T11:27:14;1.95;;;1.48;;
75526;SDS011;64107;49.248;7.006;2023-08-21T11:29:43;3.95;;;2.20;;
75526;SDS011;64107;49.248;7.006;2023-08-21T11:32:14;2.92;;;2.10;;
75526;SDS011;64107;49.248;7.006;2023-08-21T11:34:41;4.90;;;2.17;;
75526;SDS011;64107;49.248;7.006;2023-08-21T11:37:12;4.35;;;1.83;;
75526;SDS011;64107;49.248;7.006;2023-08-21T11:39:45;2.83;;;1.88;;
75526;SDS011;64107;49.248;7.006;2023-08-21T11:42:16;2.15;;;1.80;;
75526;SDS011;64107;49.248;7.006;2023-08-21T11:44:44;2.28;;;1.65;;
75526;SDS011;64107;49.248;7.006;2023-08-21T11:47:11;2.45;;;2.00;;
75526;SDS011;64107;49.248;7.006;2023-08-21T11:49:39;3.08;;;1.88;;
75526;SDS011;64107;49.248;7.006;2023-08-21T11:52:06;3.47;;;1.90;;
75526;SDS011;64107;49.248;7.006;2023-08-21T11:54:33;3.00;;;2.08;;
75526;SDS011;64107;49.248;7.006;2023-08-21T11:57:03;2.80;;;1.85;;
75526;SDS011;64107;49.248;7.006;2023-08-21T11:59:30;3.80;;;1.85;;
75526;SDS011;64107;49.248;7.006;2023-08-21T12:01:56;2.78;;;2.28;;
75526;SDS011;64107;49.248;7.006;2023-08-21T12:04:22;2.95;;;2.13;;
75526;SDS011;64107;49.248;7.006;2023-08-21T12:06:49;4.60;;;2.10;;
75526;SDS011;64107;49.248;7.006;2023-08-21T12:09:15;2.90;;;1.60;;
75526;SDS011;64107;49.248;7.006;2023-08-21T12:11:41;2.38;;;2.00;;
75526;SDS011;64107;49.248;7.006;2023-08-21T12:14:07;5.97;;;2.30;;
75526;SDS011;64107;49.248;7.006;2023-08-21T12:16:33;3.13;;;2.03;;
75526;SDS011;64107;49.248;7.006;2023-08-21T12:18:59;3.08;;;1.90;;
75526;SDS011;64107;49.248;7.006;2023-08-21T12:21:28;3.90;;;1.95;;
75526;SDS011;64107;49.248;7.006;2023-08-21T12:23:54;4.57;;;2.17;;
75526;SDS011;64107;49.248;7.006;2023-08-21T12:26:20;4.43;;;2.00;;
75526;SDS011;64107;49.248;7.006;2023-08-21T12:28:47;4.90;;;1.90;;
75526;SDS011;64107;49.248;7.006;2023-08-21T12:31:13;3.90;;;2.10;;
75526;SDS011;64107;49.248;7.006;2023-08-21T12:33:39;2.40;;;1.83;;
75526;SDS011;64107;49.248;7.006;2023-08-21T12:36:05;2.03;;;1.55;;
75526;SDS011;64107;49.248;7.006;2023-08-21T12:38:33;1.95;;;1.25;;
75526;SDS011;64107;49.248;7.006;2023-08-21T12:41:01;3.88;;;1.63;;
75526;SDS011;64107;49.248;7.006;2023-08-21T12:43:27;2.35;;;1.52;;
75526;SDS011;64107;49.248;7.006;2023-08-21T12:45:53;2.78;;;1.45;;
75526;SDS011;64107;49.248;7.006;2023-08-21T12:48:20;5.55;;;1.88;;
75526;SDS011;64107;49.248;7.006;2023-08-21T12:50:46;3.38;;;2.33;;
75526;SDS011;64107;49.248;7.006;2023-08-21T12:53:12;3.67;;;2.30;;
75526;SDS011;64107;49.248;7.006;2023-08-21T12:55:38;3.03;;;1.77;;
75526;SDS011;64107;49.248;7.006;2023-08-21T12:58:04;2.40;;;1.42;;
75526;SDS011;64107;49.248;7.006;2023-08-21T13:00:31;3.15;;;1.75;;
75526;SDS011;64107;49.248;7.006;2023-08-21T13:03:00;4.50;;;2.05;;
75526;SDS011;64107;49.248;7.006;2023-08-21T13:05:26;7.20;;;2.70;;
75526;SDS011;64107;49.248;7.006;2023-08-21T13:07:52;4.40;;;2.15;;
75526;SDS011;64107;49.248;7.006;2023-08-21T13:10:18;3.30;;;1.90;;
75526;SDS011;64107;49.248;7.006;2023-08-21T13:12:44;3.20;;;1.80;;
75526;SDS011;64107;49.248;7.006;2023-08-21T13:15:10;3.05;;;2.20;;
75526;SDS011;64107;49.248;7.006;2023-08-21T13:17:36;2.92;;;1.60;;
75526;SDS011;64107;49.248;7.006;2023-08-21T13:20:02;2.97;;;1.90;;
75526;SDS011;64107;49.248;7.006;2023-08-21T13:22:43;2.85;;;1.70;;
75526;SDS011;64107;49.248;7.006;2023-08-21T13:25:10;5.38;;;1.80;;
75526;SDS011;64107;49.248;7.006;2023-08-21T13:27:36;3.13;;;1.92;;
75526;SDS011;64107;49.248;7.006;2023-08-21T13:30:02;3.30;;;2.03;;
75526;SDS011;64107;49.248;7.006;2023-08-21T13:32:30;4.65;;;2.20;;
75526;SDS011;64107;49.248;7.006;2023-08-21T13:34:56;3.85;;;1.90;;
75526;SDS011;64107;49.248;7.006;2023-08-21T13:37:22;2.00;;;1.60;;
75526;SDS011;64107;49.248;7.006;2023-08-21T13:39:48;3.60;;;1.50;;
75526;SDS011;64107;49.248;7.006;2023-08-21T13:42:14;2.35;;;1.45;;
75526;SDS011;64107;49.248;7.006;2023-08-21T13:44:40;2.58;;;1.42;;
75526;SDS011;64107;49.248;7.006;2023-08-21T13:47:06;1.70;;;1.20;;
75526;SDS011;64107;49.248;7.006;2023-08-21T13:49:32;2.42;;;1.50;;
75526;SDS011;64107;49.248;7.006;2023-08-21T13:51:58;1.83;;;1.55;;
75526;SDS011;64107;49.248;7.006;2023-08-21T13:54:25;4.13;;;1.52;;
75526;SDS011;64107;49.248;7.006;2023-08-21T13:56:51;2.08;;;1.55;;
75526;SDS011;64107;49.248;7.006;2023-08-21T13:59:17;1.42;;;1.20;;
75526;SDS011;64107;49.248;7.006;2023-08-21T14:01:43;1.83;;;1.70;;
75526;SDS011;64107;49.248;7.006;2023-08-21T14:04:09;2.60;;;1.48;;
75526;SDS011;64107;49.248;7.006;2023-08-21T14:06:35;1.63;;;1.30;;
75526;SDS011;64107;49.248;7.006;2023-08-21T14:09:01;3.45;;;1.70;;
75526;SDS011;64107;49.248;7.006;2023-08-21T14:11:27;2.00;;;1.80;;
75526;SDS011;64107;49.248;7.006;2023-08-21T14:13:53;3.20;;;1.42;;
75526;SDS011;64107;49.248;7.006;2023-08-21T14:16:19;3.38;;;1.90;;
75526;SDS011;64107;49.248;7.006;2023-08-21T14:18:45;3.05;;;1.95;;
75526;SDS011;64107;49.248;7.006;2023-08-21T14:21:11;2.67;;;1.73;;
75526;SDS011;64107;49.248;7.006;2023-08-21T14:23:37;2.38;;;1.45;;
75526;SDS011;64107;49.248;7.006;2023-08-21T14:26:04;2.45;;;1.40;;
75526;SDS011;64107;49.248;7.006;2023-08-21T14:28:30;2.15;;;1.50;;
75526;SDS011;64107;49.248;7.006;2023-08-21T14:30:56;1.83;;;1.00;;
75526;SDS011;64107;49.248;7.006;2023-08-21T14:33:22;2.75;;;1.65;;
75526;SDS011;64107;49.248;7.006;2023-08-21T14:35:48;1.88;;;1.58;;
75526;SDS011;64107;49.248;7.006;2023-08-21T14:38:14;1.75;;;1.58;;
75526;SDS011;64107;49.248;7.006;2023-08-21T14:40:41;2.75;;;1.48;;
75526;SDS011;64107;49.248;7.006;2023-08-21T14:43:07;2.97;;;2.00;;
75526;SDS011;64107;49.248;7.006;2023-08-21T14:45:33;2.30;;;1.27;;
75526;SDS011;64107;49.248;7.006;2023-08-21T14:47:59;2.80;;;1.65;;
75526;SDS011;64107;49.248;7.006;2023-08-21T14:50:25;2.97;;;1.80;;
75526;SDS011;64107;49.248;7.006;2023-08-21T14:52:52;4.40;;;1.80;;
75526;SDS011;64107;49.248;7.006;2023-08-21T14:55:18;8.73;;;2.88;;
75526;SDS011;64107;49.248;7.006;2023-08-21T14:57:44;3.33;;;1.80;;
75526;SDS011;64107;49.248;7.006;2023-08-21T15:00:10;1.88;;;1.40;;
75526;SDS011;64107;49.248;7.006;2023-08-21T15:02:37;2.97;;;1.52;;
75526;SDS011;64107;49.248;7.006;2023-08-21T15:05:03;2.75;;;1.80;;